Time;durP1;ratioP1;P1;durP2;ratioP2;P2;SDS_P1;SDS_P2;PMS_P1;PMS_P2;Temp;Humidity;BMP_temperature;BMP_pressure;BME280_temperature;BME280_humidity;BME280_pressure;Samples;Min_cycle;Max_cycle;Signal;HPM_P1;HPM_P2
2023/12/18 00:01:27;;;;;;;2.13;0.80;;;10.40;99.90;;;;;;4985969;28;20447;-80
2023/12/18 00:03:55;;;;;;;2.30;1.00;;;10.40;99.90;;;;;;5002539;28;20133;-78
2023/12/18 00:06:23;;;;;;;2.38;0.98;;;10.40;99.90;;;;;;4986033;28;20154;-77
2023/12/18 00:08:50;;;;;;;2.58;1.50;;;10.40;99.90;;;;;;5003446;28;20053;-78
2023/12/18 00:11:17;;;;;;;4.00;1.10;;;10.40;99.90;;;;;;4986180;28;20601;-77
2023/12/18 00:13:46;;;;;;;1.42;0.80;;;10.40;99.90;;;;;;4981951;28;20053;-78
2023/12/18 00:16:13;;;;;;;1.95;0.70;;;10.40;99.90;;;;;;5001634;28;20502;-78
2023/12/18 00:18:40;;;;;;;2.20;0.73;;;10.40;99.90;;;;;;4986654;28;20050;-78
2023/12/18 00:21:07;;;;;;;1.77;0.80;;;10.40;99.90;;;;;;4970752;28;20618;-78
2023/12/18 00:23:34;;;;;;;1.10;0.55;;;10.40;99.90;;;;;;4986262;28;20511;-80
2023/12/18 00:26:01;;;;;;;2.35;1.00;;;10.40;99.90;;;;;;4985303;28;20057;-79
2023/12/18 00:28:28;;;;;;;3.25;1.00;;;10.40;99.90;;;;;;5004160;28;20071;-77
2023/12/18 00:30:55;;;;;;;2.42;1.10;;;10.40;99.90;;;;;;4986385;28;20117;-79
2023/12/18 00:33:22;;;;;;;2.50;0.90;;;10.40;99.90;;;;;;4986362;28;20065;-77
2023/12/18 00:35:49;;;;;;;2.70;1.00;;;10.40;99.90;;;;;;5002686;28;20055;-81
2023/12/18 00:38:16;;;;;;;1.65;0.70;;;10.40;99.90;;;;;;4986033;28;20128;-78
2023/12/18 00:40:43;;;;;;;3.38;1.30;;;10.40;99.90;;;;;;5001691;28;20053;-78
2023/12/18 00:43:11;;;;;;;3.15;1.02;;;10.40;99.90;;;;;;4970292;28;20053;-78
2023/12/18 00:45:38;;;;;;;2.63;1.05;;;10.40;99.90;;;;;;5002404;28;20060;-78
2023/12/18 00:48:06;;;;;;;1.85;0.82;;;10.40;99.90;;;;;;4984604;28;20123;-78
2023/12/18 00:50:33;;;;;;;0.60;0.47;;;10.40;99.90;;;;;;4985927;28;20046;-78
2023/12/18 00:53:00;;;;;;;2.55;1.00;;;10.40;99.90;;;;;;5002330;28;20611;-77
2023/12/18 00:55:27;;;;;;;1.33;0.70;;;10.40;99.90;;;;;;5001908;28;20049;-77
2023/12/18 00:57:55;;;;;;;1.80;0.70;;;10.40;99.90;;;;;;4983538;28;20133;-80
2023/12/18 01:00:23;;;;;;;2.72;0.80;;;10.40;99.90;;;;;;4985508;28;20053;-80
2023/12/18 01:02:50;;;;;;;1.08;0.75;;;10.40;99.90;;;;;;5001897;28;20050;-77
2023/12/18 01:05:17;;;;;;;1.17;0.80;;;10.40;99.90;;;;;;4985395;28;20054;-78
2023/12/18 01:07:45;;;;;;;1.48;0.63;;;10.40;99.90;;;;;;4985384;28;20057;-78
2023/12/18 01:10:12;;;;;;;3.58;1.13;;;10.40;99.90;;;;;;5001878;28;20046;-78
2023/12/18 01:12:40;;;;;;;2.13;0.80;;;10.40;99.90;;;;;;4986829;28;20136;-86
2023/12/18 01:15:07;;;;;;;1.35;0.90;;;10.30;99.90;;;;;;4987511;28;20058;-84
2023/12/18 01:17:34;;;;;;;3.25;0.85;;;10.30;99.90;;;;;;5021433;28;20609;-85
2023/12/18 01:20:26;;;;;;;1.65;0.75;;;10.30;99.90;;;;;;5023322;28;20494;-81
2023/12/18 01:22:53;;;;;;;1.17;0.63;;;10.30;99.90;;;;;;5024270;28;20132;-84
2023/12/18 01:25:30;;;;;;;1.35;0.55;;;10.20;99.90;;;;;;5023154;28;20136;-83
2023/12/18 01:27:57;;;;;;;1.27;0.82;;;10.20;99.90;;;;;;5004977;28;20135;-79
2023/12/18 01:30:24;;;;;;;1.38;0.88;;;10.20;99.90;;;;;;5021745;28;20783;-78
2023/12/18 01:32:51;;;;;;;1.45;0.77;;;10.10;99.90;;;;;;5022232;28;20057;-81
2023/12/18 01:35:18;;;;;;;1.13;0.70;;;10.10;99.90;;;;;;5021867;28;20053;-79
2023/12/18 01:37:46;;;;;;;2.63;1.20;;;10.10;99.90;;;;;;5007899;28;20470;-81
2023/12/18 01:40:13;;;;;;;1.38;0.70;;;10.00;99.90;;;;;;5022075;28;20548;-82
2023/12/18 01:42:44;;;;;;;1.75;0.70;;;10.00;99.90;;;;;;4988277;28;20419;-78
2023/12/18 01:45:11;;;;;;;2.17;0.80;;;9.90;99.90;;;;;;5005433;28;20112;-79
2023/12/18 01:47:38;;;;;;;1.92;0.88;;;9.90;99.90;;;;;;4970852;28;20150;-79
2023/12/18 01:50:05;;;;;;;1.55;0.80;;;9.90;99.90;;;;;;4989164;28;20100;-81
2023/12/18 01:52:33;;;;;;;1.88;0.50;;;9.90;99.90;;;;;;4972604;28;20049;-79
2023/12/18 01:55:00;;;;;;;2.20;0.70;;;9.90;99.90;;;;;;4988591;28;20277;-79
2023/12/18 01:57:27;;;;;;;1.23;0.65;;;9.80;99.90;;;;;;5020298;28;20055;-78
2023/12/18 01:59:55;;;;;;;1.85;0.70;;;9.80;99.90;;;;;;5024344;28;20140;-79
2023/12/18 02:02:21;;;;;;;2.53;1.08;;;9.80;99.90;;;;;;5005976;28;20479;-79
2023/12/18 02:04:48;;;;;;;2.92;0.70;;;9.80;99.90;;;;;;5008893;28;20071;-80
2023/12/18 02:07:16;;;;;;;3.95;0.70;;;9.80;99.90;;;;;;5023224;28;20234;-79
2023/12/18 02:09:43;;;;;;;2.03;0.73;;;9.80;99.90;;;;;;5024571;28;20064;-79
2023/12/18 02:12:10;;;;;;;2.20;0.73;;;9.80;99.90;;;;;;5023560;28;20513;-79
2023/12/18 02:14:37;;;;;;;1.13;0.80;;;9.80;99.90;;;;;;5007854;28;20076;-79
2023/12/18 02:17:04;;;;;;;1.25;0.55;;;9.70;99.90;;;;;;5006226;28;20590;-79
2023/12/18 02:19:31;;;;;;;1.40;0.77;;;9.70;99.90;;;;;;5008826;28;20049;-83
2023/12/18 02:21:58;;;;;;;1.33;0.60;;;9.70;99.90;;;;;;5042107;28;20477;-79
2023/12/18 02:24:25;;;;;;;3.13;1.10;;;9.70;99.90;;;;;;5023495;28;20466;-80
2023/12/18 02:26:53;;;;;;;1.25;0.65;;;9.80;99.90;;;;;;5023337;28;20494;-78
2023/12/18 02:29:20;;;;;;;2.22;0.88;;;9.80;99.90;;;;;;5008152;28;20349;-79
2023/12/18 02:31:47;;;;;;;1.60;0.70;;;9.80;99.90;;;;;;5016428;23;20409;-82
2023/12/18 02:34:14;;;;;;;0.82;0.40;;;9.80;99.90;;;;;;4937963;29;20102;-82
2023/12/18 02:36:41;;;;;;;2.10;0.50;;;9.90;99.90;;;;;;4954335;28;20068;-82
2023/12/18 02:39:08;;;;;;;0.57;0.40;;;9.90;99.90;;;;;;4962379;28;20477;-80
2023/12/18 02:41:35;;;;;;;1.45;0.73;;;9.90;99.90;;;;;;4963040;28;20101;-81
2023/12/18 02:44:02;;;;;;;1.33;0.50;;;9.90;99.90;;;;;;4946807;28;20047;-81
2023/12/18 02:46:29;;;;;;;0.90;0.38;;;9.90;99.90;;;;;;4963021;28;20121;-82
2023/12/18 02:48:56;;;;;;;0.77;0.60;;;9.80;99.90;;;;;;4963505;28;20050;-83
2023/12/18 02:51:23;;;;;;;0.88;0.55;;;9.80;99.90;;;;;;4966682;28;20054;-82
2023/12/18 02:53:50;;;;;;;0.70;0.50;;;9.70;99.90;;;;;;4968106;28;20511;-82
2023/12/18 02:56:17;;;;;;;2.63;0.63;;;9.70;99.90;;;;;;4966412;28;20055;-82
2023/12/18 02:58:44;;;;;;;0.88;0.57;;;9.70;99.90;;;;;;4967254;28;20067;-82
2023/12/18 03:01:10;;;;;;;1.30;0.60;;;9.70;99.90;;;;;;4967807;28;20131;-83
2023/12/18 03:03:37;;;;;;;2.85;1.10;;;9.70;99.90;;;;;;4964113;28;20419;-83
2023/12/18 03:06:04;;;;;;;2.40;0.80;;;9.70;99.90;;;;;;4966724;28;20133;-83
2023/12/18 03:08:31;;;;;;;2.30;0.70;;;9.80;99.90;;;;;;4990062;28;20054;-83
2023/12/18 03:10:58;;;;;;;2.35;0.70;;;9.80;99.90;;;;;;4990333;28;20066;-83
2023/12/18 03:13:25;;;;;;;1.55;0.60;;;9.90;99.90;;;;;;4965703;28;20536;-84
2023/12/18 03:15:51;;;;;;;1.25;0.65;;;9.90;99.90;;;;;;4964045;28;20951;-83
2023/12/18 03:18:18;;;;;;;1.95;0.70;;;9.90;99.90;;;;;;4963548;28;20429;-83
2023/12/18 03:20:45;;;;;;;0.45;0.38;;;9.90;99.90;;;;;;4967433;28;20078;-82
2023/12/18 03:23:12;;;;;;;2.90;0.80;;;10.00;99.90;;;;;;4965569;28;20051;-83
2023/12/18 03:25:39;;;;;;;2.08;0.73;;;10.00;99.90;;;;;;4949173;28;20141;-83
2023/12/18 03:28:06;;;;;;;1.08;0.60;;;10.00;99.90;;;;;;4967323;28;20050;-83
2023/12/18 03:30:32;;;;;;;1.02;0.30;;;10.00;99.90;;;;;;4967794;28;20275;-84
2023/12/18 03:32:59;;;;;;;0.82;0.43;;;10.00;99.90;;;;;;4988720;28;20422;-83
2023/12/18 03:35:26;;;;;;;0.90;0.50;;;10.00;99.90;;;;;;4974107;28;20070;-83
2023/12/18 03:37:53;;;;;;;2.03;0.63;;;10.00;99.90;;;;;;4989598;28;20069;-83
2023/12/18 03:40:20;;;;;;;1.65;0.73;;;10.00;99.90;;;;;;4966598;28;20153;-83
2023/12/18 03:42:47;;;;;;;0.98;0.40;;;10.00;99.90;;;;;;4966771;28;20050;-83
2023/12/18 03:45:13;;;;;;;2.67;0.70;;;10.00;99.90;;;;;;4969743;28;20387;-83
2023/12/18 03:47:40;;;;;;;1.05;0.50;;;10.00;99.90;;;;;;4964610;28;20050;-82
2023/12/18 03:50:10;;;;;;;1.48;0.70;;;9.90;99.90;;;;;;4965308;28;20057;-83
2023/12/18 03:52:37;;;;;;;1.40;0.50;;;9.90;99.90;;;;;;4964238;28;20109;-83
2023/12/18 03:55:04;;;;;;;1.65;0.77;;;9.90;99.90;;;;;;4966077;28;20546;-82
2023/12/18 03:57:31;;;;;;;1.45;0.68;;;9.90;99.90;;;;;;4966243;28;20515;-83
2023/12/18 03:59:58;;;;;;;1.73;0.80;;;9.90;99.90;;;;;;4963390;28;20043;-83
2023/12/18 04:02:25;;;;;;;2.95;0.63;;;9.90;99.90;;;;;;4987963;28;20069;-83
2023/12/18 04:04:54;;;;;;;1.02;0.60;;;9.90;99.90;;;;;;4966137;28;20058;-82
2023/12/18 04:07:21;;;;;;;0.70;0.50;;;9.90;99.90;;;;;;4966028;28;20047;-82
2023/12/18 04:09:48;;;;;;;1.38;0.50;;;10.00;99.90;;;;;;4965294;28;20486;-83
2023/12/18 04:12:15;;;;;;;3.25;0.80;;;10.00;99.90;;;;;;4964276;28;20043;-82
2023/12/18 04:14:43;;;;;;;1.88;0.88;;;10.00;99.90;;;;;;4966167;28;20050;-82
2023/12/18 04:17:10;;;;;;;2.42;0.50;;;10.10;99.90;;;;;;4965686;28;20237;-82
2023/12/18 04:19:37;;;;;;;0.68;0.50;;;10.10;99.90;;;;;;4965049;28;20059;-83
2023/12/18 04:22:04;;;;;;;1.65;0.55;;;10.10;99.90;;;;;;4964774;28;20079;-83
2023/12/18 04:24:30;;;;;;;0.75;0.52;;;10.10;99.90;;;;;;4972889;28;20445;-83
2023/12/18 04:26:57;;;;;;;1.35;0.60;;;10.10;99.90;;;;;;4967574;28;20050;-83
2023/12/18 04:29:24;;;;;;;0.98;0.45;;;10.10;99.90;;;;;;4966476;28;20050;-83
2023/12/18 04:31:51;;;;;;;0.70;0.43;;;10.10;99.90;;;;;;4964539;28;20050;-83
2023/12/18 04:34:18;;;;;;;0.55;0.40;;;10.10;99.90;;;;;;4965761;28;20141;-83
2023/12/18 04:36:45;;;;;;;1.95;0.98;;;10.10;99.90;;;;;;4988141;28;20046;-83
2023/12/18 04:39:14;;;;;;;0.50;0.35;;;10.10;99.90;;;;;;4988413;28;20441;-83
2023/12/18 04:41:41;;;;;;;1.10;1.00;;;10.10;99.90;;;;;;4988360;28;20073;-82
2023/12/18 04:44:07;;;;;;;0.75;0.50;;;10.10;99.90;;;;;;4966088;28;20192;-83
2023/12/18 04:46:35;;;;;;;0.52;0.40;;;10.10;99.90;;;;;;4963257;28;20460;-83
2023/12/18 04:49:03;;;;;;;1.10;0.40;;;10.10;99.90;;;;;;4965672;28;20236;-83
2023/12/18 04:51:30;;;;;;;0.93;0.50;;;10.10;99.90;;;;;;4964436;28;20706;-82
2023/12/18 04:53:57;;;;;;;1.02;0.40;;;10.10;99.90;;;;;;4963998;28;20417;-83
2023/12/18 04:56:24;;;;;;;0.85;0.40;;;10.10;99.90;;;;;;4964202;28;20047;-82
2023/12/18 04:58:51;;;;;;;0.45;0.40;;;10.10;99.90;;;;;;4964210;28;20465;-83
2023/12/18 05:01:18;;;;;;;0.65;0.38;;;10.10;99.90;;;;;;4985329;28;20552;-82
2023/12/18 05:03:45;;;;;;;0.82;0.52;;;10.00;99.90;;;;;;4955331;28;20413;-83
2023/12/18 05:06:27;;;;;;;1.35;0.43;;;10.10;99.90;;;;;;4964398;28;20461;-83
2023/12/18 05:08:54;;;;;;;0.80;0.50;;;10.00;99.90;;;;;;4948487;28;20038;-83
2023/12/18 05:11:23;;;;;;;2.03;0.70;;;10.10;99.90;;;;;;4947712;28;20102;-83
2023/12/18 05:13:50;;;;;;;1.33;0.50;;;10.10;99.90;;;;;;4964646;28;20039;-84
2023/12/18 05:16:17;;;;;;;1.92;0.73;;;10.00;99.90;;;;;;4970277;28;20046;-83
2023/12/18 05:18:44;;;;;;;1.25;0.68;;;10.00;99.90;;;;;;4947193;28;20053;-83
2023/12/18 05:21:11;;;;;;;1.85;0.52;;;10.00;99.90;;;;;;4965698;28;20082;-83
2023/12/18 05:23:38;;;;;;;0.77;0.47;;;10.00;99.90;;;;;;4972044;28;20059;-83
2023/12/18 05:26:05;;;;;;;0.98;0.43;;;10.00;99.90;;;;;;4965533;28;20051;-83
2023/12/18 05:28:32;;;;;;;1.35;0.50;;;10.00;99.90;;;;;;4965184;28;20050;-83
2023/12/18 05:30:59;;;;;;;1.27;0.60;;;10.00;99.90;;;;;;4945812;28;20513;-82
2023/12/18 05:33:26;;;;;;;0.98;0.60;;;10.00;99.90;;;;;;4962198;28;20574;-83
2023/12/18 05:35:53;;;;;;;0.85;0.50;;;10.10;99.90;;;;;;4965195;28;20051;-83
2023/12/18 05:38:19;;;;;;;1.63;0.60;;;10.00;99.90;;;;;;4964671;28;20278;-83
2023/12/18 05:40:46;;;;;;;1.65;0.75;;;10.00;99.90;;;;;;4965197;28;20054;-83
2023/12/18 05:43:13;;;;;;;2.20;0.50;;;10.00;99.90;;;;;;4963769;28;20047;-83
2023/12/18 05:45:40;;;;;;;1.33;0.50;;;10.10;99.90;;;;;;4970357;28;20460;-83
2023/12/18 05:48:07;;;;;;;1.90;1.13;;;10.00;99.90;;;;;;4966515;28;20047;-83
2023/12/18 05:50:34;;;;;;;1.95;0.70;;;10.00;99.90;;;;;;4951102;28;20053;-83
2023/12/18 05:53:00;;;;;;;1.13;0.40;;;10.00;99.90;;;;;;4967925;28;20047;-83
2023/12/18 05:55:27;;;;;;;0.90;0.40;;;10.00;99.90;;;;;;4991141;28;20132;-83
2023/12/18 05:57:54;;;;;;;1.33;0.90;;;10.00;99.90;;;;;;4966524;28;20512;-83
2023/12/18 06:00:21;;;;;;;4.43;1.45;;;10.00;99.90;;;;;;4968492;28;20043;-83
2023/12/18 06:02:48;;;;;;;1.42;0.60;;;10.00;99.90;;;;;;4959901;28;20469;-85
2023/12/18 06:05:15;;;;;;;1.30;0.60;;;10.10;99.90;;;;;;4957452;28;20043;-82
2023/12/18 06:07:42;;;;;;;1.35;0.60;;;10.10;99.90;;;;;;4959633;28;20459;-83
2023/12/18 06:10:09;;;;;;;1.50;0.80;;;10.10;99.90;;;;;;4960620;28;20067;-82
2023/12/18 06:12:36;;;;;;;1.30;0.60;;;10.10;99.90;;;;;;4944610;28;20129;-82
2023/12/18 06:15:05;;;;;;;1.60;0.65;;;10.10;99.90;;;;;;4962308;28;20053;-83
2023/12/18 06:17:32;;;;;;;0.90;0.40;;;10.10;99.90;;;;;;4956650;28;20077;-82
2023/12/18 06:19:59;;;;;;;1.42;0.60;;;10.10;99.90;;;;;;4941534;28;20501;-83
2023/12/18 06:22:25;;;;;;;0.65;0.47;;;10.10;99.90;;;;;;4963779;28;20136;-83
2023/12/18 06:24:53;;;;;;;0.70;0.50;;;10.10;99.90;;;;;;4962968;28;20137;-83
2023/12/18 06:27:19;;;;;;;1.05;0.50;;;10.10;99.90;;;;;;4962726;28;20042;-84
2023/12/18 06:29:46;;;;;;;0.70;0.50;;;10.10;99.90;;;;;;4965359;28;20489;-83
2023/12/18 06:32:14;;;;;;;1.20;0.60;;;10.20;99.90;;;;;;4940900;28;20082;-84
2023/12/18 06:34:42;;;;;;;1.23;0.50;;;10.20;99.90;;;;;;4961278;28;20058;-83
2023/12/18 06:37:09;;;;;;;0.90;0.50;;;10.20;99.90;;;;;;4961236;28;20053;-83
2023/12/18 06:39:36;;;;;;;1.23;0.50;;;10.30;99.90;;;;;;4963448;28;20042;-83
2023/12/18 06:42:04;;;;;;;2.63;0.70;;;10.30;99.90;;;;;;4962176;28;20055;-84
2023/12/18 06:44:32;;;;;;;3.08;0.80;;;10.30;99.90;;;;;;4966918;28;20058;-83
2023/12/18 06:46:58;;;;;;;1.35;0.60;;;10.30;99.90;;;;;;4946133;28;20234;-83
2023/12/18 06:49:25;;;;;;;2.00;0.63;;;10.30;99.90;;;;;;4960040;28;20055;-83
2023/12/18 06:51:52;;;;;;;2.10;0.60;;;10.30;99.90;;;;;;4965557;28;20310;-83
2023/12/18 06:54:19;;;;;;;0.90;0.60;;;10.30;99.90;;;;;;4967100;28;20058;-84
2023/12/18 06:56:47;;;;;;;2.00;0.77;;;10.30;99.90;;;;;;4967879;28;20051;-84
2023/12/18 06:59:14;;;;;;;3.83;1.35;;;10.30;99.90;;;;;;4964640;28;20098;-83
2023/12/18 07:01:41;;;;;;;0.95;0.50;;;10.30;99.90;;;;;;4963272;28;20057;-83
2023/12/18 07:04:08;;;;;;;0.85;0.60;;;10.30;99.90;;;;;;4961435;28;20325;-83
2023/12/18 07:06:34;;;;;;;2.20;0.73;;;10.30;99.90;;;;;;4963088;28;20059;-83
2023/12/18 07:09:01;;;;;;;2.67;0.90;;;10.30;99.90;;;;;;4967954;28;20488;-84
2023/12/18 07:11:28;;;;;;;1.85;0.90;;;10.20;99.90;;;;;;4966787;28;20140;-85
2023/12/18 07:13:56;;;;;;;2.47;0.90;;;10.30;99.90;;;;;;4966577;28;20453;-84
2023/12/18 07:16:23;;;;;;;2.25;0.82;;;10.30;99.90;;;;;;4958322;28;20576;-82
2023/12/18 07:18:50;;;;;;;2.35;0.82;;;10.20;99.90;;;;;;4963942;28;20063;-84
2023/12/18 07:21:17;;;;;;;2.08;0.90;;;10.20;99.90;;;;;;4964029;28;20066;-84
2023/12/18 07:23:44;;;;;;;1.13;0.70;;;10.20;99.90;;;;;;4950519;28;20715;-85
2023/12/18 07:26:12;;;;;;;0.88;0.60;;;10.20;99.90;;;;;;4954183;28;20309;-84
2023/12/18 07:28:40;;;;;;;1.40;0.73;;;10.30;99.90;;;;;;4970503;28;20050;-85
2023/12/18 07:31:07;;;;;;;2.22;1.00;;;10.30;99.90;;;;;;4970847;28;20113;-85
2023/12/18 07:33:35;;;;;;;2.55;0.82;;;10.30;99.90;;;;;;4972718;28;20057;-84
2023/12/18 07:36:03;;;;;;;1.83;1.00;;;10.30;99.90;;;;;;4968312;28;20113;-85
2023/12/18 07:38:30;;;;;;;1.48;0.60;;;10.40;99.90;;;;;;4951631;28;20113;-86
2023/12/18 07:40:57;;;;;;;1.10;0.70;;;10.40;99.90;;;;;;4963345;28;20042;-85
2023/12/18 07:43:24;;;;;;;0.60;0.40;;;10.40;99.90;;;;;;4959940;28;20054;-85
2023/12/18 07:45:50;;;;;;;1.65;0.80;;;10.50;99.90;;;;;;4968732;28;20080;-84
2023/12/18 07:48:21;;;;;;;1.27;0.70;;;10.50;99.90;;;;;;4949001;28;20078;-84
2023/12/18 07:50:48;;;;;;;1.33;0.73;;;10.50;99.90;;;;;;4967056;28;20050;-85
2023/12/18 07:53:16;;;;;;;2.25;0.70;;;10.50;99.90;;;;;;4968216;28;20110;-84
2023/12/18 07:55:42;;;;;;;1.13;0.68;;;10.60;99.90;;;;;;4950755;28;20465;-83
2023/12/18 07:58:09;;;;;;;0.90;0.47;;;10.50;99.90;;;;;;4966799;28;20051;-84
2023/12/18 08:00:36;;;;;;;1.52;0.60;;;10.50;99.90;;;;;;4966104;28;20489;-84
2023/12/18 08:03:03;;;;;;;2.50;0.50;;;10.50;99.90;;;;;;4961777;28;20117;-85
2023/12/18 08:05:30;;;;;;;3.05;0.70;;;10.50;99.90;;;;;;4964344;28;20556;-85
2023/12/18 08:07:58;;;;;;;1.17;1.02;;;10.50;99.90;;;;;;4964589;28;20054;-86
2023/12/18 08:10:25;;;;;;;0.80;0.40;;;10.40;99.90;;;;;;4950419;28;20123;-86
2023/12/18 08:12:53;;;;;;;1.35;0.50;;;10.40;99.90;;;;;;4966830;28;20078;-84
2023/12/18 08:15:19;;;;;;;1.02;0.55;;;10.40;99.90;;;;;;4982989;28;20054;-85
2023/12/18 08:17:46;;;;;;;1.90;0.63;;;10.30;99.90;;;;;;4984424;28;20054;-84
2023/12/18 08:20:15;;;;;;;2.70;0.70;;;10.30;99.90;;;;;;4968747;28;20065;-85
2023/12/18 08:22:42;;;;;;;2.22;0.70;;;10.30;99.90;;;;;;4982380;28;20046;-85
2023/12/18 08:25:10;;;;;;;3.63;0.90;;;10.30;99.90;;;;;;4966234;28;20054;-85
2023/12/18 08:27:37;;;;;;;1.17;0.60;;;10.30;99.90;;;;;;4964976;28;20054;-85
2023/12/18 08:30:05;;;;;;;1.13;0.60;;;10.40;99.90;;;;;;4967654;28;20435;-85
2023/12/18 08:32:32;;;;;;;1.98;0.77;;;10.30;99.90;;;;;;4933144;28;20054;-86
2023/12/18 08:35:00;;;;;;;1.40;0.60;;;10.40;99.90;;;;;;4966713;28;20063;-85
2023/12/18 08:37:27;;;;;;;1.67;0.77;;;10.40;99.90;;;;;;4964693;28;20053;-84
2023/12/18 08:39:55;;;;;;;2.08;0.80;;;10.40;99.90;;;;;;4949198;28;20357;-83
2023/12/18 08:42:22;;;;;;;1.50;0.80;;;10.40;99.90;;;;;;4948474;28;20058;-84
2023/12/18 08:44:49;;;;;;;0.80;0.50;;;10.50;99.90;;;;;;4966381;28;20595;-85
2023/12/18 08:47:16;;;;;;;0.85;0.70;;;10.50;99.90;;;;;;4962534;28;20433;-84
2023/12/18 08:49:43;;;;;;;1.77;0.80;;;10.50;99.90;;;;;;4948746;28;20050;-84
2023/12/18 08:52:10;;;;;;;2.38;0.80;;;10.50;99.90;;;;;;4964394;28;20086;-84
2023/12/18 08:54:36;;;;;;;1.20;0.60;;;10.50;99.90;;;;;;4974780;28;20101;-85
2023/12/18 08:57:03;;;;;;;1.38;0.75;;;10.50;99.90;;;;;;4978519;28;20065;-85
2023/12/18 08:59:30;;;;;;;0.90;0.55;;;10.60;99.90;;;;;;4964744;28;20066;-84
2023/12/18 09:01:57;;;;;;;1.08;0.60;;;10.60;99.90;;;;;;4945300;28;20478;-84
2023/12/18 09:04:24;;;;;;;1.35;0.60;;;10.60;99.90;;;;;;4960539;28;20465;-85
2023/12/18 09:06:51;;;;;;;2.40;1.00;;;10.60;99.90;;;;;;4963444;28;20562;-84
2023/12/18 09:09:18;;;;;;;3.25;0.93;;;10.60;99.90;;;;;;4948669;28;20474;-85
2023/12/18 09:11:45;;;;;;;2.35;0.80;;;10.60;99.90;;;;;;4963574;28;20051;-83
2023/12/18 09:14:11;;;;;;;1.20;0.70;;;10.60;99.90;;;;;;4963650;28;20413;-83
2023/12/18 09:16:39;;;;;;;1.48;0.77;;;10.70;99.90;;;;;;4923898;28;20058;-84
2023/12/18 09:19:06;;;;;;;3.13;0.90;;;10.70;99.90;;;;;;4952699;28;20070;-85
2023/12/18 09:21:33;;;;;;;2.30;1.25;;;10.70;99.90;;;;;;4937136;28;20422;-84
2023/12/18 09:24:00;;;;;;;2.80;1.13;;;10.70;99.90;;;;;;4936148;28;20142;-84
2023/12/18 09:26:27;;;;;;;2.25;0.95;;;10.80;99.90;;;;;;4955837;28;20707;-83
2023/12/18 09:28:56;;;;;;;1.77;1.10;;;10.80;99.90;;;;;;4940455;28;20122;-84
2023/12/18 09:31:23;;;;;;;1.15;1.00;;;10.80;99.90;;;;;;4957509;28;20059;-84
2023/12/18 09:33:50;;;;;;;1.70;1.00;;;10.80;99.90;;;;;;4955220;28;20082;-84
2023/12/18 09:36:17;;;;;;;1.67;0.95;;;10.90;99.90;;;;;;4957827;28;20054;-84
2023/12/18 09:38:44;;;;;;;1.48;0.73;;;10.90;99.90;;;;;;4954006;28;20177;-84
2023/12/18 09:41:11;;;;;;;1.98;1.10;;;10.90;99.90;;;;;;4955954;28;20394;-83
2023/12/18 09:43:38;;;;;;;2.83;0.95;;;10.90;99.90;;;;;;4935954;28;20582;-83
2023/12/18 09:46:05;;;;;;;1.88;1.08;;;10.90;99.90;;;;;;4941256;28;20058;-83
2023/12/18 09:48:32;;;;;;;2.92;1.40;;;10.90;99.90;;;;;;4939229;28;20047;-83
2023/12/18 09:50:59;;;;;;;3.53;1.40;;;10.90;99.90;;;;;;4925651;28;20050;-84
2023/12/18 09:53:26;;;;;;;4.85;1.20;;;10.90;99.90;;;;;;4925321;28;20047;-84
2023/12/18 09:55:54;;;;;;;2.30;1.00;;;10.90;99.90;;;;;;4954132;28;20094;-84
2023/12/18 09:58:21;;;;;;;2.38;1.15;;;11.00;99.90;;;;;;4956969;28;20148;-84
2023/12/18 10:00:48;;;;;;;1.67;0.93;;;11.00;99.90;;;;;;4959158;28;20446;-83
2023/12/18 10:03:16;;;;;;;2.95;1.02;;;11.00;99.90;;;;;;4959463;28;20393;-84
2023/12/18 10:05:44;;;;;;;1.70;0.90;;;11.10;99.90;;;;;;4965211;28;20050;-83
2023/12/18 10:08:11;;;;;;;2.92;1.30;;;11.10;99.90;;;;;;4950967;28;20058;-85
2023/12/18 10:10:39;;;;;;;1.52;0.95;;;11.20;99.90;;;;;;4936547;28;20051;-82
2023/12/18 10:13:07;;;;;;;2.65;1.20;;;11.20;99.90;;;;;;4948138;28;20513;-83
2023/12/18 10:15:34;;;;;;;3.53;1.48;;;11.20;99.90;;;;;;4948332;28;20440;-83
2023/12/18 10:18:02;;;;;;;1.60;1.00;;;11.30;99.90;;;;;;4966044;28;20062;-81
2023/12/18 10:20:30;;;;;;;4.60;1.30;;;11.30;99.90;;;;;;4937580;28;20137;-85
2023/12/18 10:22:58;;;;;;;4.05;1.48;;;11.30;99.90;;;;;;4966740;28;20061;-83
2023/12/18 10:25:25;;;;;;;3.58;1.10;;;11.30;99.90;;;;;;4949025;28;20057;-85
2023/12/18 10:27:55;;;;;;;3.92;1.30;;;11.40;99.90;;;;;;4974259;28;20054;-85
2023/12/18 10:30:29;;;;;;;2.25;1.02;;;11.40;99.90;;;;;;4966399;28;20046;-86
2023/12/18 10:32:56;;;;;;;1.38;0.90;;;11.40;99.90;;;;;;4964223;28;20137;-86
2023/12/18 10:35:23;;;;;;;3.58;1.48;;;11.40;99.90;;;;;;4949633;28;20062;-85
2023/12/18 10:37:54;;;;;;;4.05;1.10;;;11.50;99.90;;;;;;4965080;28;20050;-84
2023/12/18 10:40:23;;;;;;;2.70;0.93;;;11.50;99.90;;;;;;4964936;28;20050;-84
2023/12/18 10:43:24;;;;;;;2.35;0.80;;;11.50;99.90;;;;;;4967680;28;20512;-89
2023/12/18 10:45:54;;;;;;;3.38;1.13;;;11.50;99.90;;;;;;4978186;28;20401;-87
2023/12/18 10:48:21;;;;;;;0.88;0.75;;;11.50;99.90;;;;;;4939292;28;20331;-84
2023/12/18 10:50:48;;;;;;;2.25;1.10;;;11.60;99.90;;;;;;4963550;28;20270;-82
2023/12/18 10:53:18;;;;;;;2.88;0.95;;;11.60;99.90;;;;;;4946704;28;20371;-82
2023/12/18 10:55:44;;;;;;;1.73;0.98;;;11.60;99.90;;;;;;4967212;28;20053;-81
2023/12/18 10:58:11;;;;;;;1.55;0.80;;;11.70;99.90;;;;;;4950590;28;20070;-80
2023/12/18 11:00:38;;;;;;;1.45;0.82;;;11.70;99.90;;;;;;4949482;28;20051;-80
2023/12/18 11:03:05;;;;;;;2.05;1.08;;;11.70;99.90;;;;;;4944597;28;20057;-80
2023/12/18 11:05:33;;;;;;;1.23;0.80;;;11.70;99.90;;;;;;4947066;28;20061;-80
2023/12/18 11:08:00;;;;;;;1.73;0.93;;;11.70;99.90;;;;;;4965149;28;20253;-80
2023/12/18 11:10:26;;;;;;;1.08;0.60;;;11.70;99.90;;;;;;4933695;28;20047;-80
2023/12/18 11:13:03;;;;;;;4.15;1.30;;;11.70;99.90;;;;;;4980470;28;20093;-80
2023/12/18 11:15:59;;;;;;;3.03;1.10;;;11.70;99.90;;;;;;4948893;28;20118;-80
2023/12/18 11:18:57;;;;;;;1.35;0.70;;;11.70;99.90;;;;;;4959262;28;20136;-80
2023/12/18 11:21:39;;;;;;;1.58;0.88;;;11.70;99.90;;;;;;4947902;28;20505;-80
2023/12/18 11:24:06;;;;;;;1.08;0.75;;;11.70;99.90;;;;;;4946467;28;20062;-79
2023/12/18 11:26:34;;;;;;;1.15;0.68;;;11.80;99.90;;;;;;4945507;28;20540;-81
2023/12/18 11:29:43;;;;;;;3.55;1.17;;;11.80;99.90;;;;;;4963226;28;20230;-82
2023/12/18 11:32:11;;;;;;;2.08;0.93;;;11.80;99.90;;;;;;4961617;28;20050;-82
2023/12/18 11:34:40;;;;;;;1.60;0.60;;;11.80;99.90;;;;;;4932836;28;20059;-81
2023/12/18 11:37:11;;;;;;;2.75;0.88;;;11.90;99.90;;;;;;4932645;28;20053;-82
2023/12/18 11:39:41;;;;;;;1.20;0.88;;;12.00;99.90;;;;;;4949568;28;20055;-82
2023/12/18 11:42:10;;;;;;;1.25;0.70;;;12.10;99.90;;;;;;4947076;28;20527;-81
2023/12/18 11:44:38;;;;;;;3.10;1.00;;;12.10;99.90;;;;;;4984858;28;20055;-80
2023/12/18 11:47:05;;;;;;;2.45;1.10;;;12.10;99.90;;;;;;4929475;28;20051;-81
2023/12/18 11:49:33;;;;;;;1.50;0.93;;;12.20;99.90;;;;;;4948238;28;20051;-81
2023/12/18 11:52:17;;;;;;;1.85;0.80;;;12.30;99.90;;;;;;4988833;28;20077;-81
2023/12/18 11:54:44;;;;;;;2.67;0.95;;;12.30;99.90;;;;;;4969750;28;20054;-81
2023/12/18 11:57:15;;;;;;;1.80;1.13;;;12.30;99.90;;;;;;4932368;28;20137;-81
2023/12/18 11:59:44;;;;;;;1.65;0.90;;;12.20;99.90;;;;;;4948555;28;20055;-81
2023/12/18 12:02:11;;;;;;;3.13;1.20;;;12.30;99.90;;;;;;4961358;28;20054;-81
2023/12/18 12:04:38;;;;;;;1.20;0.70;;;12.30;99.90;;;;;;4969100;28;20054;-82
2023/12/18 12:07:11;;;;;;;1.35;0.85;;;12.50;99.90;;;;;;4946974;28;20050;-82
2023/12/18 12:09:40;;;;;;;1.33;0.93;;;12.60;99.90;;;;;;4933517;28;20086;-82
2023/12/18 12:12:07;;;;;;;1.17;0.70;;;12.70;99.90;;;;;;4948771;28;20043;-82
2023/12/18 12:14:34;;;;;;;2.90;1.10;;;12.70;99.90;;;;;;4948186;28;20513;-82
2023/12/18 12:17:03;;;;;;;1.88;0.90;;;12.80;99.90;;;;;;4969824;28;20141;-81
2023/12/18 12:19:33;;;;;;;2.42;1.00;;;12.80;99.90;;;;;;4932534;28;20125;-82
2023/12/18 12:22:01;;;;;;;1.98;0.82;;;12.70;99.90;;;;;;4943808;28;20144;-82
2023/12/18 12:24:28;;;;;;;1.92;0.70;;;12.70;99.90;;;;;;4942119;28;20065;-82
2023/12/18 12:26:55;;;;;;;3.00;0.80;;;12.70;99.90;;;;;;4927212;28;20398;-82
2023/12/18 12:29:24;;;;;;;1.05;0.63;;;12.70;99.90;;;;;;4943241;28;20054;-82
2023/12/18 12:31:51;;;;;;;1.48;0.80;;;12.70;99.90;;;;;;4957266;28;20141;-82
2023/12/18 12:34:29;;;;;;;1.15;0.70;;;12.70;99.90;;;;;;4928762;28;20054;-81
2023/12/18 12:37:01;;;;;;;1.02;0.75;;;12.60;99.90;;;;;;4940752;28;20047;-82
2023/12/18 12:39:27;;;;;;;3.08;1.05;;;12.60;99.90;;;;;;4926700;28;20059;-82
2023/12/18 12:41:54;;;;;;;1.98;0.80;;;12.50;99.90;;;;;;4942883;28;20123;-82
2023/12/18 12:44:21;;;;;;;1.90;0.88;;;12.50;99.90;;;;;;4942009;28;20070;-82
2023/12/18 12:46:48;;;;;;;3.30;0.95;;;12.50;99.90;;;;;;4941038;28;20050;-81
2023/12/18 12:49:15;;;;;;;2.05;0.90;;;12.50;99.90;;;;;;4958169;28;20177;-82
2023/12/18 12:51:42;;;;;;;2.80;1.05;;;12.50;99.90;;;;;;4960195;28;20509;-82